Time;durP1;ratioP1;P1;durP2;ratioP2;P2;SDS_P1;SDS_P2;PMS_P1;PMS_P2;Temp;Humidity;BMP_temperature;BMP_pressure;BME280_temperature;BME280_humidity;BME280_pressure;Samples;Min_cycle;Max_cycle;Signal;HPM_P1;HPM_P2
2021/01/27 00:01:34;;;;;;;;;;;;;;;5.87;100.00;99451.13;5055890;28;19925;-74
2021/01/27 00:04:01;;;;;;;;;;;;;;;5.85;100.00;99431.31;5055826;28;19952;-74
2021/01/27 00:06:29;;;;;;;;;;;;;;;5.92;100.00;99403.66;5055987;28;20031;-74
2021/01/27 00:08:56;;;;;;;;;;;;;;;5.98;100.00;99382.69;5055510;28;19970;-75
2021/01/27 00:11:26;;;;;;;;;;;;;;;6.08;100.00;99377.22;5055790;28;20463;-74
2021/01/27 00:13:52;;;;;;;;;;;;;;;6.11;100.00;99368.13;5055449;28;19931;-74
2021/01/27 00:16:19;;;;;;;;;;;;;;;6.13;100.00;99348.31;5054525;28;19933;-74
2021/01/27 00:18:46;;;;;;;;;;;;;;;6.15;100.00;99318.22;5055658;28;19932;-75
2021/01/27 00:21:12;;;;;;;;;;;;;;;6.05;100.00;99313.38;5055531;28;19925;-74
2021/01/27 00:23:39;;;;;;;;;;;;;;;6.01;100.00;99307.84;5055376;28;19932;-74
2021/01/27 00:26:06;;;;;;;;;;;;;;;6.02;100.00;99291.97;5055456;28;19978;-74
2021/01/27 00:28:32;;;;;;;;;;;;;;;6.09;100.00;99269.84;5055149;28;19931;-74
2021/01/27 00:30:59;;;;;;;;;;;;;;;6.12;100.00;99260.72;5055279;28;19957;-77
2021/01/27 00:33:25;;;;;;;;;;;;;;;6.13;100.00;99248.44;5054097;28;19925;-74
2021/01/27 00:35:52;;;;;;;;;;;;;;;6.23;100.00;99214.38;5055288;28;19925;-74
2021/01/27 00:38:22;;;;;;;;;;;;;;;6.28;100.00;99205.69;5055194;28;19967;-74
2021/01/27 00:40:53;;;;;;;;;;;;;;;6.31;100.00;99193.81;5055082;28;19925;-74
2021/01/27 00:43:20;;;;;;;;;;;;;;;6.29;100.00;99185.88;5054994;28;19925;-74
2021/01/27 00:45:47;;;;;;;;;;;;;;;6.32;100.00;99178.72;5036298;28;20331;-74
2021/01/27 00:48:14;;;;;;;;;;;;;;;6.33;100.00;99158.91;5087327;28;19929;-74
2021/01/27 00:50:41;;;;;;;;;;;;;;;6.43;100.00;99154.59;5055082;28;20376;-74
2021/01/27 00:53:08;;;;;;;;;;;;;;;6.34;100.00;99129.19;5053629;28;20280;-74
2021/01/27 00:55:42;;;;;;;;;;;;;;;6.40;100.00;99124.84;5087454;28;19932;-74
2021/01/27 00:58:10;;;;;;;;;;;;;;;6.41;100.00;99115.31;5053450;28;19935;-74
2021/01/27 01:00:40;;;;;;;;;;;;;;;6.42;100.00;99094.72;5054946;28;20433;-74
2021/01/27 01:03:13;;;;;;;;;;;;;;;6.47;100.00;99100.66;5053452;28;20372;-74
2021/01/27 01:05:41;;;;;;;;;;;;;;;6.48;100.00;99115.34;5054869;28;19931;-74
2021/01/27 01:08:12;;;;;;;;;;;;;;;6.38;100.00;99099.44;5053112;28;19924;-74
2021/01/27 01:10:41;;;;;;;;;;;;;;;6.44;100.00;99097.88;5054597;28;19948;-74
2021/01/27 01:13:10;;;;;;;;;;;;;;;6.44;100.00;99097.88;5054464;28;19986;-74
2021/01/27 01:15:37;;;;;;;;;;;;;;;6.41;100.00;99116.13;5054612;28;19924;-74
2021/01/27 01:18:04;;;;;;;;;;;;;;;6.38;100.00;99122.47;5054559;28;19971;-74
2021/01/27 01:20:30;;;;;;;;;;;;;;;6.46;100.00;99099.09;5054369;28;19925;-74
2021/01/27 01:22:58;;;;;;;;;;;;;;;6.48;100.00;99118.13;5052967;28;20009;-74
2021/01/27 01:25:26;;;;;;;;;;;;;;;6.51;100.00;99115.31;5054379;28;20019;-74
2021/01/27 01:27:53;;;;;;;;;;;;;;;6.43;100.00;99126.81;5054015;28;19932;-74
2021/01/27 01:30:22;;;;;;;;;;;;;;;6.40;100.00;99130.38;5054190;28;19925;-74
2021/01/27 01:32:49;;;;;;;;;;;;;;;6.40;100.00;99141.50;5054151;28;19940;-74
2021/01/27 01:35:17;;;;;;;;;;;;;;;6.50;100.00;99118.50;5054265;28;19925;-74
2021/01/27 01:37:44;;;;;;;;;;;;;;;6.48;100.00;99087.59;5053893;28;20300;-74
2021/01/27 01:40:12;;;;;;;;;;;;;;;6.44;100.00;99131.19;5054017;28;20429;-74
2021/01/27 01:42:38;;;;;;;;;;;;;;;6.48;100.00;99126.44;5052817;28;19925;-74
2021/01/27 01:45:14;;;;;;;;;;;;;;;6.48;100.00;99132.00;5054039;28;19924;-74
2021/01/27 01:47:44;;;;;;;;;;;;;;;6.40;100.00;99110.97;5053888;28;20398;-74
2021/01/27 01:50:10;;;;;;;;;;;;;;;6.38;100.00;99113.31;5053747;28;19931;-74
2021/01/27 01:52:37;;;;;;;;;;;;;;;6.35;100.00;99097.47;5053864;28;19931;-74
2021/01/27 01:55:04;;;;;;;;;;;;;;;6.37;100.00;99090.34;5053668;28;19925;-76
2021/01/27 01:57:31;;;;;;;;;;;;;;;6.43;100.00;99094.31;5053673;28;19925;-76
2021/01/27 02:00:05;;;;;;;;;;;;;;;6.45;100.00;99068.94;5053780;28;20011;-76
2021/01/27 02:02:38;;;;;;;;;;;;;;;6.53;100.00;99076.06;5053647;28;19932;-76
2021/01/27 02:05:06;;;;;;;;;;;;;;;6.50;100.00;99090.72;5053737;28;19975;-76
2021/01/27 02:07:36;;;;;;;;;;;;;;;6.49;100.00;99083.59;5053062;28;20444;-76
2021/01/27 02:10:04;;;;;;;;;;;;;;;6.48;100.00;99079.25;5052272;28;19925;-76
2021/01/27 02:12:30;;;;;;;;;;;;;;;6.40;100.00;99064.59;5053498;28;19925;-76
2021/01/27 02:14:57;;;;;;;;;;;;;;;6.34;100.00;99071.72;5052474;28;19933;-76
2021/01/27 02:17:42;;;;;;;;;;;;;;;6.40;100.00;99089.56;5053621;28;20061;-76
2021/01/27 02:20:24;;;;;;;;;;;;;;;6.39;100.00;99074.06;5053356;28;19925;-76
2021/01/27 02:23:10;;;;;;;;;;;;;;;6.39;100.00;99059.44;5053528;28;19956;-76
2021/01/27 02:25:56;;;;;;;;;;;;;;;6.46;100.00;99062.19;5053165;28;20455;-76
2021/01/27 02:28:43;;;;;;;;;;;;;;;6.50;100.00;99049.09;5053481;28;19925;-76
2021/01/27 02:31:26;;;;;;;;;;;;;;;6.41;100.00;99059.81;5053385;28;20280;-76
2021/01/27 02:33:58;;;;;;;;;;;;;;;6.48;100.00;99054.28;5052034;28;19924;-76
2021/01/27 02:36:49;;;;;;;;;;;;;;;6.49;100.00;99055.84;5053657;28;19925;-76
2021/01/27 02:39:19;;;;;;;;;;;;;;;6.52;100.00;99030.06;5047907;28;19964;-76
2021/01/27 02:42:09;;;;;;;;;;;;;;;6.51;100.00;99026.50;5053401;28;20027;-76
2021/01/27 02:44:40;;;;;;;;;;;;;;;6.61;100.00;99038.78;5053370;28;19929;-76
2021/01/27 02:47:12;;;;;;;;;;;;;;;6.60;100.00;99034.44;5052394;28;20392;-76
2021/01/27 02:50:00;;;;;;;;;;;;;;;6.56;100.00;99034.44;5053243;28;19931;-76
2021/01/27 02:52:39;;;;;;;;;;;;;;;6.60;100.00;99040.00;5053226;28;19925;-76
2021/01/27 02:55:26;;;;;;;;;;;;;;;6.59;100.00;99032.84;5052085;28;19932;-76
2021/01/27 02:57:56;;;;;;;;;;;;;;;6.54;100.00;99024.94;5053253;28;19970;-76
2021/01/27 03:00:26;;;;;;;;;;;;;;;6.54;100.00;99022.16;5053253;28;19925;-76
2021/01/27 03:02:56;;;;;;;;;;;;;;;6.58;100.00;99028.47;5053060;28;20421;-76
2021/01/27 03:05:27;;;;;;;;;;;;;;;6.56;100.00;99016.97;5053232;28;20022;-76
2021/01/27 03:07:57;;;;;;;;;;;;;;;6.55;100.00;99009.84;5052813;28;19924;-76
2021/01/27 03:10:28;;;;;;;;;;;;;;;6.60;100.00;98987.25;5056134;28;19931;-76
2021/01/27 03:12:55;;;;;;;;;;;;;;;6.68;100.00;98980.50;5056854;28;19940;-76
2021/01/27 03:15:24;;;;;;;;;;;;;;;6.63;100.00;98984.47;5055739;28;19990;-76
2021/01/27 03:17:56;;;;;;;;;;;;;;;6.68;100.00;98967.38;5056515;28;19925;-76
2021/01/27 03:20:34;;;;;;;;;;;;;;;6.70;100.00;98972.53;5056918;28;19963;-76
2021/01/27 03:23:27;;;;;;;;;;;;;;;6.69;100.00;98959.88;5055298;28;19931;-76
2021/01/27 03:26:16;;;;;;;;;;;;;;;6.66;100.00;98983.69;5052532;28;19924;-76
2021/01/27 03:28:54;;;;;;;;;;;;;;;6.68;99.27;98994.38;5056717;28;20403;-76
2021/01/27 03:31:20;;;;;;;;;;;;;;;6.74;97.75;98982.44;5056752;28;19932;-76
2021/01/27 03:33:52;;;;;;;;;;;;;;;6.84;96.37;98944.75;5056223;28;20386;-76
2021/01/27 03:36:18;;;;;;;;;;;;;;;6.83;96.49;98960.59;5088781;28;19974;-76
2021/01/27 03:38:47;;;;;;;;;;;;;;;6.83;95.57;98959.84;5056303;28;19924;-76
2021/01/27 03:41:29;;;;;;;;;;;;;;;6.82;93.40;98963.78;5056286;28;20379;-76
2021/01/27 03:43:56;;;;;;;;;;;;;;;6.78;89.61;98960.25;5056356;28;19925;-76
2021/01/27 03:46:26;;;;;;;;;;;;;;;6.86;88.00;98984.03;5054920;28;20008;-76
2021/01/27 03:48:55;;;;;;;;;;;;;;;6.89;99.33;98963.78;5056075;28;19924;-76
2021/01/27 03:51:23;;;;;;;;;;;;;;;6.87;92.06;98977.28;5055944;28;19971;-76
2021/01/27 03:53:51;;;;;;;;;;;;;;;6.83;92.58;98968.16;5056275;28;19929;-76
2021/01/27 03:56:21;;;;;;;;;;;;;;;6.84;90.76;98955.84;5056030;28;19925;-76
2021/01/27 03:58:48;;;;;;;;;;;;;;;6.78;91.97;98963.00;5056041;28;19932;-76
2021/01/27 04:01:16;;;;;;;;;;;;;;;6.82;90.77;98963.78;5055905;28;19956;-76
2021/01/27 04:03:43;;;;;;;;;;;;;;;6.90;89.76;98955.06;5055893;28;19932;-76
2021/01/27 04:06:10;;;;;;;;;;;;;;;6.89;91.88;98955.44;5056038;28;19948;-76
2021/01/27 04:08:37;;;;;;;;;;;;;;;6.89;95.45;98952.66;5055687;28;19925;-76
2021/01/27 04:11:04;;;;;;;;;;;;;;;6.90;90.74;98948.69;5055997;28;19947;-76
2021/01/27 04:13:31;;;;;;;;;;;;;;;6.89;90.57;98939.56;5055714;28;20031;-76
2021/01/27 04:15:58;;;;;;;;;;;;;;;6.91;90.95;98944.72;5055711;28;20269;-76
2021/01/27 04:18:25;;;;;;;;;;;;;;;6.88;92.05;98953.84;5055654;28;19925;-76
2021/01/27 04:20:53;;;;;;;;;;;;;;;6.90;91.02;98948.69;5055415;28;19924;-76
2021/01/27 04:23:19;;;;;;;;;;;;;;;6.92;90.12;98921.31;5055546;28;20431;-76
2021/01/27 04:25:46;;;;;;;;;;;;;;;6.90;90.14;98943.13;5055642;28;19924;-76
2021/01/27 04:28:13;;;;;;;;;;;;;;;6.93;91.04;98950.66;5055641;28;19931;-76
2021/01/27 04:30:39;;;;;;;;;;;;;;;6.94;91.30;98944.72;5055464;28;19925;-76
2021/01/27 04:33:07;;;;;;;;;;;;;;;6.94;92.05;98966.13;5055520;28;19987;-76
2021/01/27 04:35:34;;;;;;;;;;;;;;;6.89;92.34;98983.22;5055313;28;19932;-76
2021/01/27 04:38:01;;;;;;;;;;;;;;;6.87;93.00;98982.81;5055400;28;19932;-76
2021/01/27 04:40:29;;;;;;;;;;;;;;;6.90;93.98;98959.81;5055356;28;20304;-76
2021/01/27 04:42:56;;;;;;;;;;;;;;;6.89;94.65;98986.00;5055419;28;19932;-76
2021/01/27 04:45:23;;;;;;;;;;;;;;;6.87;94.89;98983.63;5055177;28;20066;-76
2021/01/27 04:47:52;;;;;;;;;;;;;;;6.85;94.68;98980.44;5055021;28;20011;-76
2021/01/27 04:50:23;;;;;;;;;;;;;;;6.86;94.47;98959.03;5055066;28;20292;-76
2021/01/27 04:52:54;;;;;;;;;;;;;;;6.81;95.14;98949.13;5087465;28;19931;-76
2021/01/27 04:55:21;;;;;;;;;;;;;;;6.79;95.23;98953.47;5055218;28;19929;-76
2021/01/27 04:57:47;;;;;;;;;;;;;;;6.85;94.33;98947.13;5055014;28;19932;-76
2021/01/27 05:00:33;;;;;;;;;;;;;;;6.85;93.90;98952.69;5054942;28;20271;-76
2021/01/27 05:03:05;;;;;;;;;;;;;;;6.85;93.58;98936.00;5055021;28;19961;-76
2021/01/27 05:05:33;;;;;;;;;;;;;;;6.88;93.44;98960.19;5054829;28;19931;-76
2021/01/27 05:08:22;;;;;;;;;;;;;;;6.91;92.21;99422.47;5054803;28;19954;-76
2021/01/27 05:10:51;;;;;;;;;;;;;;;6.90;92.14;99226.44;5054883;28;20253;-76
2021/01/27 05:13:18;;;;;;;;;;;;;;;6.89;92.14;99197.09;5054733;28;20002;-76
2021/01/27 05:15:45;;;;;;;;;;;;;;;6.88;92.30;99179.63;5054825;28;20291;-76
2021/01/27 05:18:13;;;;;;;;;;;;;;;6.91;91.97;99172.47;5053370;28;19928;-76
2021/01/27 05:20:39;;;;;;;;;;;;;;;6.89;92.63;99158.22;5053415;28;19931;-76
2021/01/27 05:23:06;;;;;;;;;;;;;;;6.88;92.70;99159.38;5054466;28;19924;-76
2021/01/27 05:25:51;;;;;;;;;;;;;;;6.86;92.60;99145.88;5054720;28;19956;-76
2021/01/27 05:28:21;;;;;;;;;;;;;;;6.87;92.33;99144.72;5054449;28;19928;-76
2021/01/27 05:30:54;;;;;;;;;;;;;;;6.88;92.27;99145.50;5054372;28;19964;-76
2021/01/27 05:33:40;;;;;;;;;;;;;;;6.86;92.85;99153.44;5053711;28;20245;-76
2021/01/27 05:36:08;;;;;;;;;;;;;;;6.87;92.40;99149.47;5054478;28;20285;-76
2021/01/27 05:38:34;;;;;;;;;;;;;;;6.91;91.91;99155.81;5054202;28;19925;-76
2021/01/27 05:41:07;;;;;;;;;;;;;;;6.84;92.04;99144.72;5053071;28;19944;-76
2021/01/27 05:43:36;;;;;;;;;;;;;;;6.94;91.88;99160.56;5054204;28;20377;-76
2021/01/27 05:46:12;;;;;;;;;;;;;;;6.90;92.04;99168.91;5054245;28;19925;-76
2021/01/27 05:48:49;;;;;;;;;;;;;;;6.93;91.17;99153.44;5054064;28;19924;-76
2021/01/27 05:51:27;;;;;;;;;;;;;;;6.96;90.72;99144.31;5054172;28;19924;-76
2021/01/27 05:53:55;;;;;;;;;;;;;;;6.96;90.96;99139.56;5053974;28;19994;-76
2021/01/27 05:56:23;;;;;;;;;;;;;;;6.97;91.42;99137.56;5052844;28;20369;-76
2021/01/27 05:59:00;;;;;;;;;;;;;;;6.96;91.43;99120.13;5053938;28;20055;-76
2021/01/27 06:01:36;;;;;;;;;;;;;;;6.95;92.83;99131.63;5053987;28;20031;-76
2021/01/27 06:04:02;;;;;;;;;;;;;;;6.93;93.39;99120.09;5052660;28;19924;-76
2021/01/27 06:06:31;;;;;;;;;;;;;;;6.92;93.78;99118.53;5052659;28;19932;-76
2021/01/27 06:08:59;;;;;;;;;;;;;;;6.93;94.19;99120.09;5053440;28;20379;-76
2021/01/27 06:11:26;;;;;;;;;;;;;;;6.89;94.63;99124.88;5053638;28;19932;-76
2021/01/27 06:14:07;;;;;;;;;;;;;;;6.92;94.52;99110.19;5053747;28;19925;-76
2021/01/27 06:16:40;;;;;;;;;;;;;;;6.91;95.68;99101.06;5053486;28;20387;-76
2021/01/27 06:19:11;;;;;;;;;;;;;;;6.89;96.80;99097.09;5053680;28;20298;-74
2021/01/27 06:21:57;;;;;;;;;;;;;;;6.93;96.81;99107.03;5053090;28;20295;-76
2021/01/27 06:24:45;;;;;;;;;;;;;;;6.91;97.47;99119.69;5052304;28;19924;-76
2021/01/27 06:27:27;;;;;;;;;;;;;;;6.90;97.19;99107.81;5052263;28;19928;-76
2021/01/27 06:30:13;;;;;;;;;;;;;;;6.90;97.36;99123.69;5052302;28;20024;-76
2021/01/27 06:32:52;;;;;;;;;;;;;;;6.88;98.50;99117.72;5052178;28;20376;-76
2021/01/27 06:35:30;;;;;;;;;;;;;;;6.86;99.36;99126.44;5052342;28;19932;-76
2021/01/27 06:38:16;;;;;;;;;;;;;;;6.85;99.98;99141.53;5053466;28;19978;-75
2021/01/27 06:40:58;;;;;;;;;;;;;;;6.84;100.00;99142.75;5052295;28;19966;-76
2021/01/27 06:43:24;;;;;;;;;;;;;;;6.84;100.00;99156.63;5055030;28;19924;-76
2021/01/27 06:46:00;;;;;;;;;;;;;;;6.88;100.00;99146.28;5057164;28;20376;-76
2021/01/27 06:48:56;;;;;;;;;;;;;;;6.85;100.00;99130.44;5057221;28;19929;-76
2021/01/27 06:51:25;;;;;;;;;;;;;;;6.86;100.00;99147.91;4998577;28;20020;-81
2021/01/27 06:54:01;;;;;;;;;;;;;;;6.87;100.00;99138.34;5015184;28;19930;-77
2021/01/27 06:56:51;;;;;;;;;;;;;;;6.87;100.00;99141.94;5002450;28;20389;-79
2021/01/27 06:59:35;;;;;;;;;;;;;;;6.86;100.00;99143.13;5010560;28;20336;-77
2021/01/27 07:02:08;;;;;;;;;;;;;;;6.89;100.00;99147.09;5009879;28;19933;-78
2021/01/27 07:04:53;;;;;;;;;;;;;;;6.89;100.00;99138.75;5010778;28;19925;-75
2021/01/27 07:07:21;;;;;;;;;;;;;;;6.88;99.65;99145.50;4993946;28;19945;-77
2021/01/27 07:09:57;;;;;;;;;;;;;;;6.89;100.00;99136.00;5010310;28;19929;-77
2021/01/27 07:12:38;;;;;;;;;;;;;;;6.90;100.00;99149.47;5010131;28;19925;-78
2021/01/27 07:15:05;;;;;;;;;;;;;;;6.90;100.00;99140.34;5010239;28;19937;-78
2021/01/27 07:17:52;;;;;;;;;;;;;;;6.90;100.00;99137.56;5009942;28;19930;-78
2021/01/27 07:20:23;;;;;;;;;;;;;;;6.89;100.00;99142.31;5010175;28;19925;-78
2021/01/27 07:22:54;;;;;;;;;;;;;;;6.87;100.00;99141.94;5009566;28;19926;-78
2021/01/27 07:25:28;;;;;;;;;;;;;;;6.87;100.00;99132.81;4995086;28;19983;-78
2021/01/27 07:28:03;;;;;;;;;;;;;;;6.90;100.00;99129.22;5049055;28;19924;-78
2021/01/27 07:31:05;;;;;;;;;;;;;;;6.87;100.00;99138.34;5058723;28;20024;-79
2021/01/27 07:33:36;;;;;;;;;;;;;;;6.88;100.00;99160.19;5000119;28;19929;-77
2021/01/27 07:36:03;;;;;;;;;;;;;;;6.86;98.85;99136.78;5018925;28;19940;-78
2021/01/27 07:38:32;;;;;;;;;;;;;;;6.84;99.27;99130.81;5007677;28;20437;-78
2021/01/27 07:41:05;;;;;;;;;;;;;;;6.85;99.59;99129.63;4997162;28;20008;-77
2021/01/27 07:43:38;;;;;;;;;;;;;;;6.87;99.71;99127.25;5022826;28;20413;-78
2021/01/27 07:46:05;;;;;;;;;;;;;;;6.85;100.00;99133.19;5020199;28;19929;-78
2021/01/27 07:48:37;;;;;;;;;;;;;;;6.86;100.00;99122.91;5032318;28;19936;-78
2021/01/27 07:51:30;;;;;;;;;;;;;;;6.86;100.00;99125.66;5031530;28;19991;-79
2021/01/27 07:54:33;;;;;;;;;;;;;;;6.85;100.00;99129.63;5019132;28;19933;-78
2021/01/27 07:57:18;;;;;;;;;;;;;;;6.84;98.64;99131.63;5033802;28;19929;-78
2021/01/27 07:59:50;;;;;;;;;;;;;;;6.84;97.36;99133.59;5033677;28;19925;-78
2021/01/27 08:02:20;;;;;;;;;;;;;;;6.88;96.68;99142.72;5017165;28;19937;-78
2021/01/27 08:04:47;;;;;;;;;;;;;;;6.91;96.29;99126.06;5033749;28;19935;-78
2021/01/27 08:07:18;;;;;;;;;;;;;;;6.91;94.96;99144.69;5049442;28;20380;-81
2021/01/27 08:09:45;;;;;;;;;;;;;;;6.89;94.87;99142.31;5058294;28;19943;-81
2021/01/27 08:12:19;;;;;;;;;;;;;;;6.88;92.65;99134.38;5075679;28;19936;-77
2021/01/27 08:14:58;;;;;;;;;;;;;;;6.93;92.13;99131.22;5076107;28;20493;-82
2021/01/27 08:17:43;;;;;;;;;;;;;;;6.94;92.06;99127.25;5058340;28;20377;-83
2021/01/27 08:20:16;;;;;;;;;;;;;;;6.92;91.61;99129.63;5075788;28;20389;-79
2021/01/27 08:22:47;;;;;;;;;;;;;;;6.94;90.69;99121.69;5074724;28;19978;-80
2021/01/27 08:25:34;;;;;;;;;;;;;;;6.93;89.16;99123.69;5074616;28;19925;-80
2021/01/27 08:28:19;;;;;;;;;;;;;;;7.01;86.33;99124.47;5075280;28;20086;-81
2021/01/27 08:31:04;;;;;;;;;;;;;;;6.98;85.36;99126.03;5074398;28;20288;-80
2021/01/27 08:33:38;;;;;;;;;;;;;;;7.01;84.54;99139.13;5075694;28;20039;-80
2021/01/27 08:36:07;;;;;;;;;;;;;;;7.00;83.76;99134.78;5057755;28;19932;-80
2021/01/27 08:38:36;;;;;;;;;;;;;;;7.04;82.90;99143.13;5074500;28;20073;-81
2021/01/27 08:41:05;;;;;;;;;;;;;;;7.03;82.81;99144.28;5075336;28;19951;-80
2021/01/27 08:43:38;;;;;;;;;;;;;;;7.08;82.52;99144.72;5075597;28;19972;-80
2021/01/27 08:46:23;;;;;;;;;;;;;;;7.08;81.89;99152.25;5075513;28;20338;-80
2021/01/27 08:48:51;;;;;;;;;;;;;;;7.12;80.86;99151.03;5075308;28;19924;-80
2021/01/27 08:51:35;;;;;;;;;;;;;;;7.13;79.77;99162.97;5074971;28;19924;-80
2021/01/27 08:54:19;;;;;;;;;;;;;;;7.13;79.00;99149.06;5074013;28;19928;-80
2021/01/27 08:57:05;;;;;;;;;;;;;;;7.14;78.29;99154.22;5073929;28;19968;-79
2021/01/27 08:59:31;;;;;;;;;;;;;;;7.14;77.95;99148.66;5073736;28;19939;-79
2021/01/27 09:02:00;;;;;;;;;;;;;;;7.15;77.14;99158.59;5074773;28;20298;-79
2021/01/27 09:04:34;;;;;;;;;;;;;;;7.20;75.90;99168.50;5056868;28;20323;-79
2021/01/27 09:07:02;;;;;;;;;;;;;;;7.27;74.66;99157.38;5073780;28;19932;-79
2021/01/27 09:09:36;;;;;;;;;;;;;;;7.25;73.77;99154.22;5074471;28;19925;-78
2021/01/27 09:12:05;;;;;;;;;;;;;;;7.27;72.20;99157.38;5072766;28;19966;-77
2021/01/27 09:14:32;;;;;;;;;;;;;;;7.29;71.25;99163.31;5074566;28;20391;-77
2021/01/27 09:17:01;;;;;;;;;;;;;;;7.29;70.93;99172.47;5050246;28;19940;-79
2021/01/27 09:19:29;;;;;;;;;;;;;;;7.29;70.34;99166.09;5042391;28;19925;-78
2021/01/27 09:22:04;;;;;;;;;;;;;;;7.32;69.51;99168.09;5061275;28;19932;-78
2021/01/27 09:24:42;;;;;;;;;;;;;;;7.36;68.96;99172.44;5053002;28;19925;-78
2021/01/27 09:27:17;;;;;;;;;;;;;;;7.37;68.73;99178.81;5054621;28;19964;-78
2021/01/27 09:29:44;;;;;;;;;;;;;;;7.37;68.75;99195.50;5060835;28;19931;-78
2021/01/27 09:32:13;;;;;;;;;;;;;;;7.41;68.60;99201.06;5055389;28;19924;-78
2021/01/27 09:34:40;;;;;;;;;;;;;;;7.39;68.66;99204.22;5050013;28;19965;-77
2021/01/27 09:37:25;;;;;;;;;;;;;;;7.38;68.71;99212.97;5055236;28;19928;-78
2021/01/27 09:40:05;;;;;;;;;;;;;;;7.41;68.51;99217.72;5056588;28;20494;-80
2021/01/27 09:42:31;;;;;;;;;;;;;;;7.42;68.53;99236.78;5065499;28;20073;-78
2021/01/27 09:45:03;;;;;;;;;;;;;;;7.47;68.13;99232.81;5054173;28;19931;-78
2021/01/27 09:47:32;;;;;;;;;;;;;;;7.49;68.41;99245.13;5051485;28;19925;-80
2021/01/27 09:50:00;;;;;;;;;;;;;;;7.52;68.54;99252.66;5061744;28;19967;-79
2021/01/27 09:52:28;;;;;;;;;;;;;;;7.48;69.16;99264.97;5069686;28;19928;-78
2021/01/27 09:55:06;;;;;;;;;;;;;;;7.49;69.42;99267.38;5038317;28;19924;-79
2021/01/27 09:57:35;;;;;;;;;;;;;;;7.42;70.21;99286.84;5061273;28;19928;-79
2021/01/27 10:00:06;;;;;;;;;;;;;;;7.42;70.58;99303.53;5062042;28;19931;-76
2021/01/27 10:02:34;;;;;;;;;;;;;;;7.40;71.04;99317.00;5051464;28;19967;-80
2021/01/27 10:05:01;;;;;;;;;;;;;;;7.49;70.96;99336.06;5052990;28;19939;-78
2021/01/27 10:07:28;;;;;;;;;;;;;;;7.41;71.41;99351.94;5048270;28;20395;-79
2021/01/27 10:10:03;;;;;;;;;;;;;;;7.49;71.43;99369.44;5058402;28;20015;-78
2021/01/27 10:12:31;;;;;;;;;;;;;;;7.50;71.66;99391.28;5049968;28;20360;-80
2021/01/27 10:15:05;;;;;;;;;;;;;;;7.50;72.12;99404.41;5065519;28;19932;-76
2021/01/27 10:17:33;;;;;;;;;;;;;;;7.55;72.45;99429.84;5058475;28;19935;-75
2021/01/27 10:20:03;;;;;;;;;;;;;;;7.54;73.14;99439.38;5050092;28;20272;-75
2021/01/27 10:22:34;;;;;;;;;;;;;;;7.57;73.78;99449.72;5051137;28;20579;-78
2021/01/27 10:25:03;;;;;;;;;;;;;;;7.56;74.40;99475.13;5052907;28;19929;-76
2021/01/27 10:27:45;;;;;;;;;;;;;;;7.65;74.38;99489.44;5059374;28;20516;-78
2021/01/27 10:30:16;;;;;;;;;;;;;;;7.64;74.90;99526.78;5064051;28;20112;-78
2021/01/27 10:32:48;;;;;;;;;;;;;;;7.55;76.24;99540.25;5051637;28;19932;-77
2021/01/27 10:35:19;;;;;;;;;;;;;;;7.46;78.02;99557.31;5050651;28;19932;-77
2021/01/27 10:37:45;;;;;;;;;;;;;;;7.50;78.53;99572.03;5049630;28;20249;-77
2021/01/27 10:40:14;;;;;;;;;;;;;;;7.51;78.98;99584.75;5048993;28;19933;-77
2021/01/27 10:42:53;;;;;;;;;;;;;;;7.56;79.63;99603.81;5052342;28;19925;-78
2021/01/27 10:45:25;;;;;;;;;;;;;;;7.59;80.22;99625.28;5061436;28;19924;-78
2021/01/27 10:48:18;;;;;;;;;;;;;;;7.61;80.84;99649.94;5058641;28;20023;-75
2021/01/27 10:50:50;;;;;;;;;;;;;;;7.64;81.66;99663.88;5051427;28;19929;-75
2021/01/27 10:53:28;;;;;;;;;;;;;;;7.66;82.93;99697.66;5061086;28;20471;-77
2021/01/27 10:55:55;;;;;;;;;;;;;;;7.74;83.52;99715.97;5059533;28;19935;-77
2021/01/27 10:58:22;;;;;;;;;;;;;;;7.74;84.52;99737.44;5051490;28;20439;-78
2021/01/27 11:00:50;;;;;;;;;;;;;;;7.72;85.70;99751.75;5065574;28;20288;-78
2021/01/27 11:03:17;;;;;;;;;;;;;;;7.73;87.10;99774.78;5053025;28;19924;-78
2021/01/27 11:05:45;;;;;;;;;;;;;;;7.72;88.88;99789.88;5048782;28;19924;-78
2021/01/27 11:08:24;;;;;;;;;;;;;;;7.78;90.38;99830.06;5047419;28;19924;-78
2021/01/27 11:10:52;;;;;;;;;;;;;;;7.88;91.99;99854.38;5046783;28;20015;-78
2021/01/27 11:13:19;;;;;;;;;;;;;;;7.97;93.32;99877.09;5048406;28;19925;-82
2021/01/27 11:15:49;;;;;;;;;;;;;;;7.95;95.51;99902.53;5031595;28;19986;-85
2021/01/27 11:18:16;;;;;;;;;;;;;;;8.01;96.78;99922.47;5051795;28;19952;-81
2021/01/27 11:20:43;;;;;;;;;;;;;;;7.98;99.15;99949.06;5051817;28;19929;-80
2021/01/27 11:23:09;;;;;;;;;;;;;;;7.97;100.00;99980.06;5052194;28;19990;-88
2021/01/27 11:25:36;;;;;;;;;;;;;;;8.01;100.00;100006.75;5052253;28;19925;-85
2021/01/27 11:28:03;;;;;;;;;;;;;;;8.11;100.00;100036.66;5051979;28;19936;-84
2021/01/27 11:30:29;;;;;;;;;;;;;;;8.05;100.00;100074.41;5037154;28;20356;-77
2021/01/27 11:33:00;;;;;;;;;;;;;;;8.01;100.00;100097.81;5056598;28;20299;-77
2021/01/27 11:35:27;;;;;;;;;;;;;;;8.00;100.00;100122.03;5056633;28;20019;-85
2021/01/27 11:37:56;;;;;;;;;;;;;;;7.95;100.00;100141.84;5039185;28;19939;-80
2021/01/27 11:40:25;;;;;;;;;;;;;;;7.94;100.00;100168.09;5055838;28;19974;-84
2021/01/27 11:42:52;;;;;;;;;;;;;;;7.83;100.00;100186.63;5034287;28;19929;-83
2021/01/27 11:45:20;;;;;;;;;;;;;;;7.85;100.00;100212.13;5068977;28;19925;-82
2021/01/27 11:47:48;;;;;;;;;;;;;;;7.92;100.00;100230.91;5036926;28;20015;-83
2021/01/27 11:50:16;;;;;;;;;;;;;;;7.95;100.00;100258.75;5071612;28;19974;-84
2021/01/27 11:52:44;;;;;;;;;;;;;;;8.00;100.00;100291.84;5056646;28;20020;-87
2021/01/27 11:55:12;;;;;;;;;;;;;;;8.08;100.00;100298.28;5071865;28;19932;-83
2021/01/27 11:57:38;;;;;;;;;;;;;;;7.98;100.00;100315.66;5056578;28;19928;-85
2021/01/27 12:00:06;;;;;;;;;;;;;;;7.87;100.00;100321.06;5055069;28;19991;-86
2021/01/27 12:02:34;;;;;;;;;;;;;;;7.92;100.00;100322.72;5053269;28;19928;-84
2021/01/27 12:05:01;;;;;;;;;;;;;;;7.97;100.00;100314.84;5071436;28;19925;-86
2021/01/27 12:07:27;;;;;;;;;;;;;;;8.04;100.00;100308.59;5038238;28;19924;-85
2021/01/27 12:09:54;;;;;;;;;;;;;;;8.08;100.00;100318.59;5055909;28;20633;-80
2021/01/27 12:12:20;;;;;;;;;;;;;;;8.11;100.00;100330.94;5054974;28;19925;-79
2021/01/27 12:15:04;;;;;;;;;;;;;;;8.19;100.00;100274.19;5069702;28;19967;-81
2021/01/27 12:17:30;;;;;;;;;;;;;;;8.24;100.00;100184.78;5103276;28;19925;-78
2021/01/27 12:20:02;;;;;;;;;;;;;;;8.17;100.00;100221.66;5070757;28;20384;-77
2021/01/27 12:22:29;;;;;;;;;;;;;;;8.03;100.00;100243.75;5065447;28;19931;-77
2021/01/27 12:24:55;;;;;;;;;;;;;;;8.05;100.00;100291.50;5068946;28;19994;-76
2021/01/27 12:27:22;;;;;;;;;;;;;;;8.14;100.00;100331.00;5070029;28;19932;-76
2021/01/27 12:29:48;;;;;;;;;;;;;;;8.12;100.00;100375.13;5070671;28;19932;-78
2021/01/27 12:32:15;;;;;;;;;;;;;;;8.10;100.00;100410.91;5103334;28;20431;-76
2021/01/27 12:34:42;;;;;;;;;;;;;;;8.18;100.00;100448.78;5070298;28;19924;-77
2021/01/27 12:37:08;;;;;;;;;;;;;;;8.13;100.00;100474.19;5070845;28;19925;-77
2021/01/27 12:39:36;;;;;;;;;;;;;;;8.16;100.00;100473.44;5070809;28;19924;-80
2021/01/27 12:42:03;;;;;;;;;;;;;;;8.25;100.00;100499.06;5070770;28;20011;-79
2021/01/27 12:44:39;;;;;;;;;;;;;;;8.24;100.00;100502.22;5070836;28;19956;-78
2021/01/27 12:47:06;;;;;;;;;;;;;;;8.30;100.00;100478.47;5070735;28;19925;-79
2021/01/27 12:49:32;;;;;;;;;;;;;;;8.36;100.00;100460.25;5070339;28;19924;-79
2021/01/27 12:52:03;;;;;;;;;;;;;;;8.29;100.00;100455.38;5070589;28;19978;-79
2021/01/27 12:54:29;;;;;;;;;;;;;;;8.31;100.00;100464.16;5069375;28;20010;-79
2021/01/27 12:56:56;;;;;;;;;;;;;;;8.32;100.00;100459.38;5070469;28;19924;-79
2021/01/27 12:59:22;;;;;;;;;;;;;;;8.29;100.00;100443.41;5070388;28;20360;-79
2021/01/27 13:01:49;;;;;;;;;;;;;;;8.33;100.00;100452.63;5070346;28;20279;-78
2021/01/27 13:04:16;;;;;;;;;;;;;;;8.26;100.00;100444.97;5070069;28;20448;-79
2021/01/27 13:06:43;;;;;;;;;;;;;;;8.28;100.00;100442.63;5070281;28;19942;-79
2021/01/27 13:09:10;;;;;;;;;;;;;;;8.28;100.00;100431.50;5070264;28;19932;-79
2021/01/27 13:11:36;;;;;;;;;;;;;;;8.28;100.00;100411.19;5068767;28;19925;-79
2021/01/27 13:14:03;;;;;;;;;;;;;;;8.31;100.00;100408.47;5069840;28;20382;-79